createdAt,value
2016-03-05T00:00:13.535Z,0
2016-03-05T00:01:13.522Z,0
2016-03-05T00:02:13.540Z,0
2016-03-05T00:03:13.543Z,0
2016-03-05T00:04:13.545Z,0
2016-03-05T00:05:13.548Z,0
2016-03-05T00:06:13.566Z,0
2016-03-05T00:07:13.569Z,0
2016-03-05T00:08:13.571Z,0
2016-03-05T00:09:13.574Z,0
2016-03-05T00:10:13.576Z,0
2016-03-05T00:11:13.595Z,0
2016-03-05T00:12:13.598Z,0
2016-03-05T00:13:13.601Z,0
2016-03-05T00:14:13.745Z,0
2016-03-05T00:15:13.622Z,0
2016-03-05T00:16:13.640Z,0
2016-03-05T00:17:13.627Z,0
2016-03-05T00:18:13.631Z,0
2016-03-05T00:19:13.648Z,0
2016-03-05T00:20:13.478Z,0
2016-03-05T00:21:13.647Z,0
2016-03-05T00:22:13.638Z,0
2016-03-05T00:23:14.114Z,0
2016-03-05T00:24:13.636Z,0
2016-03-05T00:25:13.627Z,0
2016-03-05T00:26:13.951Z,0
2016-03-05T00:27:13.637Z,0
2016-03-05T00:28:13.654Z,0
2016-03-05T00:29:13.684Z,0
2016-03-05T00:30:13.522Z,0
2016-03-05T00:31:13.646Z,0
2016-03-05T00:32:13.648Z,0
2016-03-05T00:33:13.664Z,0
2016-03-05T00:34:13.667Z,0
2016-03-05T00:35:13.652Z,0
2016-03-05T00:36:13.684Z,0
2016-03-05T00:37:13.702Z,0
2016-03-05T00:38:13.688Z,0
2016-03-05T00:39:13.674Z,0
2016-03-05T00:40:13.676Z,0
2016-03-05T00:41:13.693Z,0
2016-03-05T00:42:13.697Z,0
2016-03-05T00:43:13.716Z,0
2016-03-05T00:44:13.718Z,0
2016-03-05T00:45:13.737Z,0
2016-03-05T00:46:13.723Z,0
2016-03-05T00:47:13.742Z,0
2016-03-05T00:48:13.728Z,0
2016-03-05T00:49:13.763Z,0
2016-03-05T00:50:13.765Z,0
2016-03-05T00:51:13.768Z,0
2016-03-05T00:52:13.755Z,0
2016-03-05T00:53:13.789Z,0
2016-03-05T00:54:13.775Z,0
2016-03-05T00:55:13.779Z,0
2016-03-05T00:56:13.798Z,0
2016-03-05T00:57:13.800Z,0
2016-03-05T00:58:13.803Z,0
2016-03-05T00:59:13.867Z,0
2016-03-05T01:00:13.824Z,0
2016-03-05T01:01:13.826Z,0
2016-03-05T01:02:13.844Z,0
2016-03-05T01:03:13.833Z,0
2016-03-05T01:04:13.850Z,0
2016-03-05T01:05:13.853Z,0
2016-03-05T01:06:13.855Z,0
2016-03-05T01:07:13.858Z,0
2016-03-05T01:08:13.860Z,0
2016-03-05T01:09:13.880Z,0
2016-03-05T01:10:13.897Z,0
2016-03-05T01:11:13.900Z,0
2016-03-05T01:12:13.887Z,0
2016-03-05T01:13:13.905Z,0
2016-03-05T01:14:13.907Z,0
2016-03-05T01:15:13.926Z,0
2016-03-05T01:16:13.929Z,0
2016-03-05T01:17:13.932Z,0
2016-03-05T01:18:13.935Z,0
2016-03-05T01:19:13.937Z,0
2016-03-05T01:20:13.956Z,0
2016-03-05T01:21:13.942Z,0
2016-03-05T01:22:13.961Z,0
2016-03-05T01:23:13.963Z,0
2016-03-05T01:24:13.982Z,0
2016-03-05T01:25:13.845Z,0
2016-03-05T01:26:13.987Z,0
2016-03-05T01:27:13.989Z,0
2016-03-05T01:28:13.992Z,0
2016-03-05T01:29:13.995Z,0
2016-03-05T01:30:14.014Z,0
2016-03-05T01:31:14.016Z,0
2016-03-05T01:32:14.035Z,0
2016-03-05T01:33:14.022Z,0
2016-03-05T01:34:14.041Z,0
2016-03-05T01:35:14.043Z,0
2016-03-05T01:36:14.045Z,0
2016-03-05T01:37:14.094Z,0
2016-03-05T01:38:14.067Z,0
2016-03-05T01:39:14.100Z,0
2016-03-05T01:40:14.088Z,0
2016-03-05T01:41:14.121Z,0
2016-03-05T01:42:14.093Z,0
2016-03-05T01:43:14.079Z,0
2016-03-05T01:44:14.098Z,0
2016-03-05T01:45:14.116Z,0
2016-03-05T01:46:14.135Z,0
2016-03-05T01:47:14.122Z,0
2016-03-05T01:48:14.124Z,0
2016-03-05T01:49:14.174Z,0
2016-03-05T01:50:14.176Z,0
2016-03-05T01:51:14.148Z,0
2016-03-05T01:52:14.166Z,0
2016-03-05T01:53:14.154Z,0
2016-03-05T01:54:14.188Z,0
2016-03-05T01:55:14.175Z,0
2016-03-05T01:56:14.192Z,0
2016-03-05T01:57:14.180Z,0
2016-03-05T01:58:14.198Z,0
2016-03-05T01:59:14.201Z,0
2016-03-05T02:00:14.203Z,0
2016-03-05T02:01:14.067Z,0
2016-03-05T02:02:14.225Z,0
2016-03-05T02:03:14.227Z,0
2016-03-05T02:04:14.277Z,0
2016-03-05T02:05:14.248Z,0
2016-03-05T02:06:14.236Z,0
2016-03-05T02:07:14.098Z,0
2016-03-05T02:08:14.257Z,0
2016-03-05T02:09:14.275Z,0
2016-03-05T02:10:14.262Z,0
2016-03-05T02:11:14.280Z,0
2016-03-05T02:12:14.282Z,0
2016-03-05T02:13:14.301Z,0
2016-03-05T02:14:14.320Z,0
2016-03-05T02:15:14.322Z,0
2016-03-05T02:16:14.310Z,0
2016-03-05T02:17:14.331Z,0
2016-03-05T02:18:14.334Z,0
2016-03-05T02:19:14.196Z,0
2016-03-05T02:20:14.339Z,0
2016-03-05T02:21:14.357Z,0
2016-03-05T02:22:14.360Z,0
2016-03-05T02:23:14.348Z,0
2016-03-05T02:24:14.366Z,0
2016-03-05T02:25:14.369Z,0
2016-03-05T02:26:14.387Z,0
2016-03-05T02:27:14.405Z,0
2016-03-05T02:28:14.376Z,0
2016-03-05T02:29:14.395Z,0
2016-03-05T02:30:14.398Z,0
2016-03-05T02:31:14.416Z,0
2016-03-05T02:32:14.434Z,0
2016-03-05T02:33:14.421Z,0
2016-03-05T02:34:14.440Z,0
2016-03-05T02:35:14.427Z,0
2016-03-05T02:36:14.445Z,0
2016-03-05T02:37:14.448Z,0
2016-03-05T02:38:14.451Z,0
2016-03-05T02:39:14.453Z,0
2016-03-05T02:40:14.456Z,0
2016-03-05T02:41:14.474Z,0
2016-03-05T02:42:14.492Z,0
2016-03-05T02:43:14.480Z,0
2016-03-05T02:44:14.529Z,0
2016-03-05T02:45:14.501Z,0
2016-03-05T02:46:14.503Z,0
2016-03-05T02:47:14.506Z,0
2016-03-05T02:48:14.508Z,0
2016-03-05T02:49:14.605Z,0
2016-03-05T02:50:14.529Z,0
2016-03-05T02:51:14.533Z,0
2016-03-05T02:52:14.551Z,0
2016-03-05T02:53:14.538Z,0
2016-03-05T02:54:14.556Z,0
2016-03-05T02:55:14.590Z,0
2016-03-05T02:56:14.561Z,0
2016-03-05T02:57:14.579Z,0
2016-03-05T02:58:14.582Z,0
2016-03-05T02:59:14.585Z,0
2016-03-05T03:00:14.588Z,0
2016-03-05T03:01:14.606Z,0
2016-03-05T03:02:14.640Z,0
2016-03-05T03:03:14.611Z,0
2016-03-05T03:04:14.629Z,0
2016-03-05T03:05:14.617Z,0
2016-03-05T03:06:14.634Z,0
2016-03-05T03:07:14.623Z,0
2016-03-05T03:08:14.656Z,0
2016-03-05T03:09:14.643Z,0
2016-03-05T03:10:14.661Z,0
2016-03-05T03:11:14.664Z,0
2016-03-05T03:12:14.667Z,0
2016-03-05T03:13:14.670Z,0
2016-03-05T03:14:14.689Z,0
2016-03-05T03:15:14.691Z,0
2016-03-05T03:16:14.709Z,0
2016-03-05T03:17:14.696Z,0
2016-03-05T03:18:14.730Z,0
2016-03-05T03:19:14.732Z,0
2016-03-05T03:20:14.736Z,0
2016-03-05T03:21:14.739Z,0
2016-03-05T03:22:14.741Z,0
2016-03-05T03:23:14.744Z,0
2016-03-05T03:24:14.746Z,0
2016-03-05T03:25:14.749Z,0
2016-03-05T03:26:14.751Z,0
2016-03-05T03:27:14.769Z,0
2016-03-05T03:28:14.772Z,0
2016-03-05T03:29:14.775Z,0
2016-03-05T03:30:14.778Z,0
2016-03-05T03:31:14.796Z,0
2016-03-05T03:32:14.799Z,0
2016-03-05T03:33:14.817Z,0
2016-03-05T03:34:14.820Z,0
2016-03-05T03:35:14.823Z,0
2016-03-05T03:36:14.841Z,0
2016-03-05T03:37:14.828Z,0
2016-03-05T03:38:14.846Z,0
2016-03-05T03:39:14.848Z,0
2016-03-05T03:40:14.851Z,0
2016-03-05T03:41:14.854Z,0
2016-03-05T03:42:14.873Z,0
2016-03-05T03:43:14.860Z,0
2016-03-05T03:44:14.879Z,0
2016-03-05T03:45:14.881Z,0
2016-03-05T03:46:14.883Z,0
2016-03-05T03:47:14.902Z,0
2016-03-05T03:48:14.905Z,0
2016-03-05T03:49:14.922Z,0
2016-03-05T03:50:14.911Z,0
2016-03-05T03:51:14.913Z,0
2016-03-05T03:52:14.947Z,0
2016-03-05T03:53:14.933Z,0
2016-03-05T03:54:14.936Z,0
2016-03-05T03:55:14.969Z,0
2016-03-05T03:56:14.941Z,0
2016-03-05T03:57:14.960Z,0
2016-03-05T03:58:14.963Z,0
2016-03-05T03:59:14.981Z,0
2016-03-05T04:00:14.983Z,0
2016-03-05T04:01:14.986Z,0
2016-03-05T04:02:14.988Z,0
2016-03-05T04:03:15.007Z,0
2016-03-05T04:04:15.009Z,0
2016-03-05T04:05:15.013Z,0
2016-03-05T04:06:15.016Z,0
2016-03-05T04:07:15.034Z,0
2016-03-05T04:08:15.021Z,0
2016-03-05T04:09:15.039Z,0
2016-03-05T04:10:15.057Z,0
2016-03-05T04:11:15.060Z,0
2016-03-05T04:12:15.063Z,0
2016-03-05T04:13:15.066Z,0
2016-03-05T04:14:15.068Z,0
2016-03-05T04:15:15.071Z,0
2016-03-05T04:16:15.073Z,0
2016-03-05T04:17:15.075Z,0
2016-03-05T04:18:15.094Z,0
2016-03-05T04:19:15.114Z,0
2016-03-05T04:20:15.116Z,0
2016-03-05T04:21:15.103Z,0
2016-03-05T04:22:15.137Z,0
2016-03-05T04:23:15.124Z,0
2016-03-05T04:24:15.157Z,0
2016-03-05T04:25:15.144Z,0
2016-03-05T04:26:15.148Z,0
2016-03-05T04:27:15.166Z,0
2016-03-05T04:28:15.153Z,0
2016-03-05T04:29:15.155Z,0
2016-03-05T04:30:15.158Z,0
2016-03-05T04:31:15.176Z,0
2016-03-05T04:32:15.194Z,0
2016-03-05T04:33:15.181Z,0
2016-03-05T04:34:15.216Z,0
2016-03-05T04:35:15.188Z,0
2016-03-05T04:36:15.205Z,0
2016-03-05T04:37:15.208Z,0
2016-03-05T04:38:15.242Z,0
2016-03-05T04:39:15.245Z,0
2016-03-05T04:40:15.231Z,0
2016-03-05T04:41:15.250Z,0
2016-03-05T04:42:15.238Z,0
2016-03-05T04:43:15.334Z,0
2016-03-05T04:44:15.259Z,0
2016-03-05T04:45:15.261Z,0
2016-03-05T04:46:15.278Z,0
2016-03-05T04:47:15.266Z,0
2016-03-05T04:48:15.285Z,0
2016-03-05T04:49:15.303Z,0
2016-03-05T04:50:15.306Z,0
2016-03-05T04:51:15.324Z,0
2016-03-05T04:52:15.311Z,0
2016-03-05T04:53:15.344Z,0
2016-03-05T04:54:15.316Z,0
2016-03-05T04:55:15.350Z,0
2016-03-05T04:56:15.338Z,0
2016-03-05T04:57:15.356Z,0
2016-03-05T04:58:15.375Z,0
2016-03-05T04:59:15.377Z,0
2016-03-05T05:00:15.691Z,0
2016-03-05T05:01:15.397Z,0
2016-03-05T05:02:15.385Z,0
2016-03-05T05:03:15.419Z,0
2016-03-05T05:04:15.406Z,0
2016-03-05T05:05:15.408Z,0
2016-03-05T05:06:15.428Z,0
2016-03-05T05:07:15.399Z,0
2016-03-05T05:08:15.261Z,0
2016-03-05T05:09:15.419Z,0
2016-03-05T05:10:15.283Z,0
2016-03-05T05:11:15.442Z,0
2016-03-05T05:12:15.444Z,0
2016-03-05T05:13:15.447Z,0
2016-03-05T05:14:15.480Z,0
2016-03-05T05:15:15.452Z,0
2016-03-05T05:16:15.329Z,0
2016-03-05T05:17:15.473Z,0
2016-03-05T05:18:15.476Z,0
2016-03-05T05:19:15.510Z,0
2016-03-05T05:20:15.482Z,0
2016-03-05T05:21:15.499Z,0
2016-03-05T05:22:15.518Z,0
2016-03-05T05:23:15.504Z,0
2016-03-05T05:24:15.507Z,0
2016-03-05T05:25:15.525Z,0
2016-03-05T05:26:15.529Z,0
2016-03-05T05:27:15.547Z,0
2016-03-05T05:28:15.534Z,0
2016-03-05T05:29:15.552Z,0
2016-03-05T05:30:15.554Z,0
2016-03-05T05:31:15.573Z,0
2016-03-05T05:32:15.576Z,0
2016-03-05T05:33:15.562Z,0
2016-03-05T05:34:15.581Z,0
2016-03-05T05:35:15.567Z,0
2016-03-05T05:36:15.603Z,0
2016-03-05T05:37:15.589Z,0
2016-03-05T05:38:15.622Z,0
2016-03-05T05:39:15.610Z,0
2016-03-05T05:40:15.644Z,0
2016-03-05T05:41:15.616Z,0
2016-03-05T05:42:15.650Z,0
2016-03-05T05:43:15.636Z,0
2016-03-05T05:44:15.639Z,0
2016-03-05T05:45:15.658Z,0
2016-03-05T05:46:15.660Z,0
2016-03-05T05:47:15.522Z,0
2016-03-05T05:48:15.665Z,0
2016-03-05T05:49:15.685Z,0
2016-03-05T05:50:15.546Z,0
2016-03-05T05:51:15.533Z,0
2016-03-05T05:52:15.707Z,0
2016-03-05T05:53:15.695Z,0
2016-03-05T05:54:15.712Z,0
2016-03-05T05:55:15.732Z,4
2016-03-05T05:56:15.719Z,4
2016-03-05T05:57:15.721Z,4
2016-03-05T05:58:15.724Z,0
2016-03-05T05:59:15.742Z,0
2016-03-05T06:00:15.745Z,0
2016-03-05T06:01:15.779Z,4
2016-03-05T06:02:15.750Z,4
2016-03-05T06:03:15.785Z,4
2016-03-05T06:04:15.756Z,4
2016-03-05T06:05:15.837Z,4
2016-03-05T06:06:15.792Z,8
2016-03-05T06:07:15.795Z,4
2016-03-05T06:08:15.657Z,4
2016-03-05T06:09:15.800Z,8
2016-03-05T06:10:15.819Z,8
2016-03-05T06:11:15.806Z,8
2016-03-05T06:12:15.887Z,8
2016-03-05T06:13:15.827Z,12
2016-03-05T06:14:15.845Z,8
2016-03-05T06:15:15.863Z,12
2016-03-05T06:16:15.850Z,12
2016-03-05T06:17:15.852Z,12
2016-03-05T06:18:15.871Z,12
2016-03-05T06:19:15.859Z,16
2016-03-05T06:20:15.924Z,16
2016-03-05T06:21:15.880Z,16
2016-03-05T06:22:15.882Z,16
2016-03-05T06:23:15.900Z,20
2016-03-05T06:24:15.887Z,20
2016-03-05T06:25:15.906Z,24
2016-03-05T06:26:15.909Z,20
2016-03-05T06:27:15.958Z,24
2016-03-05T06:28:15.930Z,24
2016-03-05T06:29:15.932Z,28
2016-03-05T06:30:15.934Z,28
2016-03-05T06:31:15.953Z,32
2016-03-05T06:32:16.504Z,36
2016-03-05T06:33:15.974Z,36
2016-03-05T06:34:15.961Z,40
2016-03-05T06:35:15.980Z,44
2016-03-05T06:36:15.998Z,44
2016-03-05T06:37:15.969Z,48
2016-03-05T06:38:16.003Z,52
2016-03-05T06:39:16.006Z,52
2016-03-05T06:40:16.009Z,56
2016-03-05T06:41:16.012Z,64
2016-03-05T06:42:16.045Z,60
2016-03-05T06:43:16.017Z,64
2016-03-05T06:44:16.035Z,68
2016-03-05T06:45:16.038Z,68
2016-03-05T06:46:16.055Z,72
2016-03-05T06:47:16.043Z,72
2016-03-05T06:48:16.078Z,72
2016-03-05T06:49:16.049Z,76
2016-03-05T06:50:16.083Z,72
2016-03-05T06:51:16.116Z,72
2016-03-05T06:52:16.072Z,72
2016-03-05T06:53:16.090Z,72
2016-03-05T06:54:16.077Z,68
2016-03-05T06:55:16.096Z,64
2016-03-05T06:56:16.115Z,60
2016-03-05T06:57:16.118Z,56
2016-03-05T06:58:16.135Z,56
2016-03-05T06:59:16.123Z,52
2016-03-05T07:00:16.500Z,56
2016-03-05T07:01:16.128Z,56
2016-03-05T07:02:16.162Z,52
2016-03-05T07:03:15.992Z,48
2016-03-05T07:04:16.168Z,44
2016-03-05T07:05:16.045Z,36
2016-03-05T07:06:16.157Z,36
2016-03-05T07:07:16.190Z,32
2016-03-05T07:08:16.178Z,32
2016-03-05T07:09:16.195Z,32
2016-03-05T07:10:16.198Z,32
2016-03-05T07:11:16.186Z,32
2016-03-05T07:12:16.204Z,36
2016-03-05T07:13:16.238Z,40
2016-03-05T07:14:16.241Z,40
2016-03-05T07:15:16.227Z,40
2016-03-05T07:16:16.230Z,40
2016-03-05T07:17:16.249Z,40
2016-03-05T07:18:16.236Z,44
2016-03-05T07:19:16.270Z,52
2016-03-05T07:20:16.305Z,56
2016-03-05T07:21:16.275Z,60
2016-03-05T07:22:16.277Z,60
2016-03-05T07:23:16.280Z,60
2016-03-05T07:24:16.283Z,60
2016-03-05T07:25:16.286Z,56
2016-03-05T07:26:16.288Z,48
2016-03-05T07:27:16.307Z,44
2016-03-05T07:28:16.310Z,40
2016-03-05T07:29:16.329Z,40
2016-03-05T07:30:16.315Z,44
2016-03-05T07:31:16.349Z,52
2016-03-05T07:32:16.336Z,64
2016-03-05T07:33:16.355Z,72
2016-03-05T07:34:16.342Z,80
2016-03-05T07:35:16.375Z,88
2016-03-05T07:36:16.362Z,88
2016-03-05T07:37:16.365Z,92
2016-03-05T07:38:16.383Z,100
2016-03-05T07:39:16.370Z,108
2016-03-05T07:40:16.373Z,112
2016-03-05T07:41:16.392Z,120
2016-03-05T07:42:16.395Z,124
2016-03-05T07:43:16.428Z,132
2016-03-05T07:44:16.415Z,132
2016-03-05T07:45:16.417Z,128
2016-03-05T07:46:16.420Z,128
2016-03-05T07:47:16.455Z,124
2016-03-05T07:48:16.425Z,120
2016-03-05T07:49:16.461Z,120
2016-03-05T07:50:16.447Z,116
2016-03-05T07:51:16.466Z,108
2016-03-05T07:52:16.468Z,108
2016-03-05T07:53:16.471Z,104
2016-03-05T07:54:16.489Z,108
2016-03-05T07:55:16.476Z,108
2016-03-05T07:56:16.510Z,116
2016-03-05T07:57:16.497Z,124
2016-03-05T07:58:16.532Z,132
2016-03-05T07:59:16.518Z,136
2016-03-05T08:00:16.537Z,140
2016-03-05T08:01:16.523Z,152
2016-03-05T08:02:16.558Z,152
2016-03-05T08:03:16.529Z,160
2016-03-05T08:04:16.563Z,172
2016-03-05T08:05:16.394Z,188
2016-03-05T08:06:16.554Z,204
2016-03-05T08:07:16.556Z,216
2016-03-05T08:08:16.559Z,224
2016-03-05T08:09:16.593Z,236
2016-03-05T08:10:16.580Z,248
2016-03-05T08:11:16.598Z,264
2016-03-05T08:12:16.601Z,272
2016-03-05T08:13:16.619Z,272
2016-03-05T08:14:16.606Z,272
2016-03-05T08:15:16.609Z,264
2016-03-05T08:16:16.627Z,256
2016-03-05T08:17:16.646Z,252
2016-03-05T08:18:16.649Z,252
2016-03-05T08:19:16.510Z,240
2016-03-05T08:20:16.653Z,232
2016-03-05T08:21:16.656Z,220
2016-03-05T08:22:16.675Z,216
2016-03-05T08:23:16.678Z,212
2016-03-05T08:24:16.696Z,220
2016-03-05T08:25:16.698Z,224
2016-03-05T08:26:16.733Z,228
2016-03-05T08:27:16.751Z,232
2016-03-05T08:28:16.706Z,236
2016-03-05T08:29:16.725Z,240
2016-03-05T08:30:16.727Z,244
2016-03-05T08:31:16.746Z,248
2016-03-05T08:32:16.749Z,252
2016-03-05T08:33:16.782Z,260
2016-03-05T08:34:16.786Z,268
2016-03-05T08:35:16.772Z,280
2016-03-05T08:36:16.775Z,276
2016-03-05T08:37:16.777Z,272
2016-03-05T08:38:16.796Z,268
2016-03-05T08:39:16.799Z,268
2016-03-05T08:40:16.801Z,272
2016-03-05T08:41:16.804Z,276
2016-03-05T08:42:16.822Z,276
2016-03-05T08:43:16.841Z,288
2016-03-05T08:44:16.827Z,296
2016-03-05T08:45:16.830Z,312
2016-03-05T08:46:16.849Z,328
2016-03-05T08:47:16.851Z,356
2016-03-05T08:48:16.885Z,392
2016-03-05T08:49:16.872Z,416
2016-03-05T08:50:16.891Z,484
2016-03-05T08:51:16.878Z,640
2016-03-05T08:52:16.881Z,716
2016-03-05T08:53:16.898Z,700
2016-03-05T08:54:16.917Z,612
2016-03-05T08:55:16.920Z,600
2016-03-05T08:56:16.766Z,536
2016-03-05T08:57:16.925Z,448
2016-03-05T08:58:16.928Z,384
2016-03-05T08:59:16.962Z,344
2016-03-05T09:00:16.964Z,300
2016-03-05T09:01:16.967Z,280
2016-03-05T09:02:16.970Z,268
2016-03-05T09:03:16.973Z,284
2016-03-05T09:04:16.991Z,296
2016-03-05T09:05:16.993Z,316
2016-03-05T09:06:17.011Z,328
2016-03-05T09:07:17.014Z,340
2016-03-05T09:08:17.017Z,348
2016-03-05T09:09:17.020Z,356
2016-03-05T09:10:16.897Z,372
2016-03-05T09:11:17.057Z,416
2016-03-05T09:12:17.043Z,456
2016-03-05T09:13:17.062Z,472
2016-03-05T09:14:17.049Z,492
2016-03-05T09:15:17.068Z,488
2016-03-05T09:16:17.085Z,496
2016-03-05T09:17:17.073Z,504
2016-03-05T09:18:17.090Z,492
2016-03-05T09:19:17.093Z,436
2016-03-05T09:20:17.112Z,416
2016-03-05T09:21:17.115Z,428
2016-03-05T09:22:17.133Z,424
2016-03-05T09:23:17.120Z,420
2016-03-05T09:24:17.139Z,416
2016-03-05T09:25:17.141Z,404
2016-03-05T09:26:17.144Z,400
2016-03-05T09:27:17.150Z,392
2016-03-05T09:28:17.154Z,408
2016-03-05T09:29:17.142Z,424
2016-03-05T09:30:17.131Z,444
2016-03-05T09:31:17.119Z,452
2016-03-05T09:32:17.116Z,456
2016-03-05T09:33:17.128Z,472
2016-03-05T09:34:17.126Z,444
2016-03-05T09:35:17.124Z,436
2016-03-05T09:36:17.138Z,436
2016-03-05T09:37:17.154Z,420
2016-03-05T09:38:17.139Z,412
2016-03-05T09:39:17.140Z,404
2016-03-05T09:40:17.140Z,404
2016-03-05T09:41:17.188Z,412
2016-03-05T09:42:17.174Z,416
2016-03-05T09:43:17.162Z,420
2016-03-05T09:44:17.179Z,416
2016-03-05T09:45:17.181Z,420
2016-03-05T09:46:17.184Z,436
2016-03-05T09:47:17.202Z,440
2016-03-05T09:48:17.235Z,440
2016-03-05T09:49:17.222Z,444
2016-03-05T09:50:17.208Z,428
2016-03-05T09:51:17.227Z,432
2016-03-05T09:52:17.230Z,456
2016-03-05T09:53:17.247Z,472
2016-03-05T09:54:17.250Z,492
2016-03-05T09:55:17.253Z,504
2016-03-05T09:56:17.272Z,536
2016-03-05T09:57:17.274Z,556
2016-03-05T09:58:17.277Z,604
2016-03-05T09:59:17.280Z,636
2016-03-05T10:00:17.298Z,656
2016-03-05T10:01:17.316Z,700
2016-03-05T10:02:17.302Z,732
2016-03-05T10:03:17.352Z,780
2016-03-05T10:04:17.324Z,812
2016-03-05T10:05:17.327Z,852
2016-03-05T10:06:17.346Z,904
2016-03-05T10:07:17.379Z,964
2016-03-05T10:08:17.351Z,1012
2016-03-05T10:09:17.368Z,1188
2016-03-05T10:10:17.356Z,1300
2016-03-05T10:11:17.389Z,1288
2016-03-05T10:12:17.377Z,1168
2016-03-05T10:13:17.395Z,1124
2016-03-05T10:14:17.429Z,1120
2016-03-05T10:15:17.401Z,1096
2016-03-05T10:16:17.435Z,968
2016-03-05T10:17:17.422Z,940
2016-03-05T10:18:17.424Z,920
2016-03-05T10:19:17.427Z,908
2016-03-05T10:20:17.461Z,996
2016-03-05T10:21:17.448Z,1140
2016-03-05T10:22:17.467Z,1148
2016-03-05T10:23:17.469Z,1152
2016-03-05T10:24:17.347Z,1176
2016-03-05T10:25:17.161Z,1120
2016-03-05T10:26:17.492Z,1028
2016-03-05T10:27:17.511Z,984
2016-03-05T10:28:17.498Z,952
2016-03-05T10:29:17.517Z,868
2016-03-05T10:30:17.503Z,768
2016-03-05T10:31:17.538Z,776
2016-03-05T10:32:17.524Z,864
2016-03-05T10:33:17.543Z,892
2016-03-05T10:34:17.545Z,840
2016-03-05T10:35:17.579Z,824
2016-03-05T10:36:17.566Z,772
2016-03-05T10:37:17.554Z,756
2016-03-05T10:38:17.572Z,804
2016-03-05T10:39:17.590Z,872
2016-03-05T10:40:17.593Z,828
2016-03-05T10:41:17.595Z,788
2016-03-05T10:42:17.598Z,772
2016-03-05T10:43:17.616Z,768
2016-03-05T10:44:17.620Z,732
2016-03-05T10:45:17.638Z,736
2016-03-05T10:46:17.640Z,720
2016-03-05T10:47:17.659Z,688
2016-03-05T10:48:17.661Z,684
2016-03-05T10:49:17.664Z,660
2016-03-05T10:50:17.667Z,620
2016-03-05T10:51:17.685Z,584
2016-03-05T10:52:17.687Z,588
2016-03-05T10:53:17.690Z,600
2016-03-05T10:54:17.709Z,592
2016-03-05T10:55:17.695Z,568
2016-03-05T10:56:17.730Z,568
2016-03-05T10:57:17.716Z,572
2016-03-05T10:58:17.720Z,604
2016-03-05T10:59:17.752Z,600
2016-03-05T11:00:17.850Z,608
2016-03-05T11:01:17.743Z,592
2016-03-05T11:02:17.746Z,592
2016-03-05T11:03:17.607Z,576
2016-03-05T11:04:17.766Z,544
2016-03-05T11:05:17.801Z,512
2016-03-05T11:06:17.804Z,524
2016-03-05T11:07:17.790Z,556
2016-03-05T11:08:17.810Z,600
2016-03-05T11:09:17.827Z,620
2016-03-05T11:10:17.798Z,584
2016-03-05T11:11:17.832Z,608
2016-03-05T11:12:17.850Z,648
2016-03-05T11:13:17.838Z,660
2016-03-05T11:14:17.840Z,636
2016-03-05T11:15:17.859Z,580
2016-03-05T11:16:17.862Z,564
2016-03-05T11:17:17.879Z,640
2016-03-05T11:18:17.851Z,892
2016-03-05T11:19:17.869Z,984
2016-03-05T11:20:17.856Z,1032
2016-03-05T11:21:17.923Z,1052
2016-03-05T11:22:17.878Z,1052
2016-03-05T11:23:17.881Z,1036
2016-03-05T11:24:17.883Z,992
2016-03-05T11:25:17.901Z,972
2016-03-05T11:26:17.872Z,1028
2016-03-05T11:27:17.891Z,1060
2016-03-05T11:28:17.893Z,1048
2016-03-05T11:29:17.880Z,1020
2016-03-05T11:30:17.884Z,1008
2016-03-05T11:31:17.886Z,980
2016-03-05T11:32:17.889Z,960
2016-03-05T11:33:17.891Z,948
2016-03-05T11:34:17.879Z,960
2016-03-05T11:35:17.881Z,996
2016-03-05T11:36:17.743Z,1028
2016-03-05T11:37:17.903Z,1056
2016-03-05T11:38:17.874Z,1068
2016-03-05T11:39:17.908Z,1072
2016-03-05T11:40:17.879Z,1068
2016-03-05T11:41:17.913Z,1048
2016-03-05T11:42:17.884Z,980
2016-03-05T11:43:17.903Z,836
2016-03-05T11:44:17.890Z,764
2016-03-05T11:45:17.877Z,852
2016-03-05T11:46:17.896Z,960
2016-03-05T11:47:17.882Z,1024
2016-03-05T11:48:17.901Z,1024
2016-03-05T11:49:17.887Z,1016
2016-03-05T11:50:17.923Z,1004
2016-03-05T11:51:17.939Z,980
2016-03-05T11:52:17.881Z,948
2016-03-05T11:53:17.883Z,908
2016-03-05T11:54:17.901Z,868
2016-03-05T11:55:17.903Z,828
2016-03-05T11:56:17.938Z,796
2016-03-05T11:57:17.894Z,764
2016-03-05T11:58:17.880Z,748
2016-03-05T11:59:17.900Z,752
2016-03-05T12:00:17.902Z,776
2016-03-05T12:01:17.905Z,804
2016-03-05T12:02:17.875Z,808
2016-03-05T12:03:17.925Z,804
2016-03-05T12:04:17.881Z,816
2016-03-05T12:05:17.915Z,820
2016-03-05T12:06:17.762Z,808
2016-03-05T12:07:17.889Z,780
2016-03-05T12:08:17.877Z,764
2016-03-05T12:09:17.880Z,784
2016-03-05T12:10:17.882Z,784
2016-03-05T12:11:17.884Z,740
2016-03-05T12:12:17.887Z,712
2016-03-05T12:13:17.874Z,732
2016-03-05T12:14:17.892Z,776
2016-03-05T12:15:17.880Z,784
2016-03-05T12:16:17.882Z,772
2016-03-05T12:17:17.870Z,744
2016-03-05T12:18:17.872Z,716
2016-03-05T12:19:17.875Z,660
2016-03-05T12:20:17.878Z,624
2016-03-05T12:21:17.911Z,604
2016-03-05T12:22:17.868Z,608
2016-03-05T12:23:17.901Z,620
2016-03-05T12:24:17.889Z,640
2016-03-05T12:25:17.876Z,652
2016-03-05T12:26:17.878Z,652
2016-03-05T12:27:17.880Z,660
2016-03-05T12:28:17.883Z,656
2016-03-05T12:29:17.855Z,660
2016-03-05T12:30:17.873Z,696
2016-03-05T12:31:17.111Z,736
2016-03-05T12:32:17.863Z,748
2016-03-05T12:33:17.803Z,748
2016-03-05T12:34:17.883Z,776
2016-03-05T12:35:17.871Z,764
2016-03-05T12:36:17.889Z,744
2016-03-05T12:37:17.860Z,736
2016-03-05T12:38:17.864Z,728
2016-03-05T12:39:17.866Z,732
2016-03-05T12:40:17.853Z,736
2016-03-05T12:41:17.855Z,716
2016-03-05T12:42:17.874Z,680
2016-03-05T12:43:17.846Z,652
2016-03-05T12:44:17.848Z,644
2016-03-05T12:46:17.838Z,644
2016-03-05T12:47:17.857Z,644
2016-03-05T12:48:17.859Z,680
2016-03-05T12:49:17.846Z,772
2016-03-05T12:50:17.848Z,868
2016-03-05T12:51:17.915Z,936
2016-03-05T12:52:17.839Z,980
2016-03-05T12:53:17.856Z,996
2016-03-05T12:54:17.876Z,976
2016-03-05T12:55:17.831Z,964
2016-03-05T12:56:17.850Z,956
2016-03-05T12:57:17.836Z,936
2016-03-05T12:58:17.839Z,936
2016-03-05T12:59:17.842Z,756
2016-03-05T13:00:17.939Z,756
2016-03-05T13:01:17.847Z,744
2016-03-05T13:02:17.834Z,760
2016-03-05T13:03:17.836Z,784
2016-03-05T13:04:17.839Z,796
2016-03-05T13:05:17.842Z,796
2016-03-05T13:06:17.844Z,788
2016-03-05T13:07:17.942Z,760
2016-03-05T13:08:17.866Z,728
2016-03-05T13:09:17.852Z,680
2016-03-05T13:10:17.855Z,620
2016-03-05T13:11:17.874Z,576
2016-03-05T13:12:17.861Z,540
2016-03-05T13:13:17.879Z,524
2016-03-05T13:14:17.976Z,524
2016-03-05T13:15:17.932Z,520
2016-03-05T13:16:17.904Z,524
2016-03-05T13:17:17.890Z,524
2016-03-05T13:18:17.893Z,528
2016-03-05T13:19:17.911Z,524
2016-03-05T13:20:17.914Z,516
2016-03-05T13:21:17.917Z,500
2016-03-05T13:22:17.934Z,484
2016-03-05T13:23:17.923Z,476
2016-03-05T13:24:17.925Z,476
2016-03-05T13:25:17.943Z,476
2016-03-05T13:26:17.945Z,464
2016-03-05T13:27:17.964Z,456
2016-03-05T13:28:17.967Z,448
2016-03-05T13:29:17.970Z,448
2016-03-05T13:30:17.972Z,448
2016-03-05T13:31:17.974Z,456
2016-03-05T13:32:17.992Z,464
2016-03-05T13:33:17.980Z,476
2016-03-05T13:34:17.998Z,488
2016-03-05T13:35:18.001Z,496
2016-03-05T13:36:18.020Z,488
2016-03-05T13:37:18.006Z,480
2016-03-05T13:38:18.025Z,476
2016-03-05T13:39:18.997Z,472
2016-03-05T13:40:18.046Z,460
2016-03-05T13:41:18.096Z,452
2016-03-05T13:42:18.130Z,448
2016-03-05T13:43:18.055Z,448
2016-03-05T13:44:18.057Z,452
2016-03-05T13:45:18.091Z,464
2016-03-05T13:46:18.062Z,480
2016-03-05T13:47:18.080Z,496
2016-03-05T13:48:18.083Z,520
2016-03-05T13:49:18.085Z,540
2016-03-05T13:50:18.104Z,564
2016-03-05T13:51:18.559Z,576
2016-03-05T13:52:18.376Z,588
2016-03-05T13:53:18.096Z,592
2016-03-05T13:54:18.131Z,584
2016-03-05T13:55:18.133Z,584
2016-03-05T13:56:18.151Z,576
2016-03-05T13:57:18.154Z,552
2016-03-05T13:58:18.141Z,536
2016-03-05T13:59:18.159Z,524
2016-03-05T14:00:18.162Z,524
2016-03-05T14:01:18.181Z,528
2016-03-05T14:02:18.167Z,532
2016-03-05T14:03:18.186Z,536
2016-03-05T14:04:18.204Z,544
2016-03-05T14:05:18.191Z,548
2016-03-05T14:06:18.225Z,548
2016-03-05T14:07:18.211Z,552
2016-03-05T14:08:18.215Z,548
2016-03-05T14:09:18.217Z,544
2016-03-05T14:10:18.236Z,540
2016-03-05T14:11:18.227Z,536
2016-03-05T14:12:18.262Z,532
2016-03-05T14:13:18.248Z,532
2016-03-05T14:14:18.267Z,536